sensor_id;sensor_type;location;lat;lon;timestamp;pressure;altitude;pressure_sealevel;temperature;humidity
77212;BME280;66206;0.000;0.000;2023-01-19T13:54:25;96966.81;;;12.68;39.39
77212;BME280;66206;0.000;0.000;2023-01-19T13:56:53;96956.44;;;15.30;31.76
77212;BME280;66206;0.000;0.000;2023-01-19T13:59:21;96954.37;;;18.68;26.62
77212;BME280;66206;0.000;0.000;2023-01-19T14:01:50;96959.53;;;20.43;23.99
77212;BME280;66206;0.000;0.000;2023-01-19T14:04:24;96956.02;;;21.28;22.82
77212;BME280;66206;0.000;0.000;2023-01-19T14:06:48;96952.47;;;21.42;22.52
77212;BME280;66206;0.000;0.000;2023-01-19T14:09:18;96954.05;;;21.27;22.20
77212;BME280;66206;0.000;0.000;2023-01-19T14:11:44;96957.68;;;22.02;21.53
77212;BME280;66206;0.000;0.000;2023-01-19T14:14:24;96959.37;;;21.58;21.86
77212;BME280;66206;0.000;0.000;2023-01-19T14:16:39;96965.47;;;21.44;21.76
77212;BME280;66206;0.000;0.000;2023-01-19T14:19:09;96966.37;;;21.64;21.74
77212;BME280;66206;0.000;0.000;2023-01-19T14:21:39;96965.53;;;21.22;21.89
77212;BME280;66206;0.000;0.000;2023-01-19T14:24:13;96962.85;;;21.62;21.76
77212;BME280;66206;0.000;0.000;2023-01-19T14:26:41;96960.77;;;21.44;21.78
77212;BME280;66206;0.000;0.000;2023-01-19T14:29:06;96958.28;;;21.67;21.65
77212;BME280;66206;0.000;0.000;2023-01-19T14:31:32;96955.83;;;21.72;21.53
77212;BME280;66206;0.000;0.000;2023-01-19T14:34:00;96958.67;;;21.67;21.52
77212;BME280;66206;0.000;0.000;2023-01-19T14:36:32;96956.73;;;21.69;21.45
77212;BME280;66206;0.000;0.000;2023-01-19T14:38:58;96960.90;;;21.99;21.21
77212;BME280;66206;0.000;0.000;2023-01-19T14:41:24;96960.34;;;22.03;21.22
77212;BME280;66206;0.000;0.000;2023-01-19T14:43:50;96962.58;;;21.93;21.26
77212;BME280;66206;0.000;0.000;2023-01-19T14:46:20;96961.86;;;21.69;21.38
77212;BME280;66206;0.000;0.000;2023-01-19T14:48:51;96967.14;;;21.92;21.27
77212;BME280;66206;0.000;0.000;2023-01-19T14:51:17;96971.06;;;22.19;20.94
77212;BME280;66206;0.000;0.000;2023-01-19T14:53:45;96972.82;;;21.92;21.11
77212;BME280;66206;0.000;0.000;2023-01-19T14:56:10;96977.15;;;21.78;21.29
77212;BME280;66206;0.000;0.000;2023-01-19T14:58:41;96972.47;;;21.82;21.25
77212;BME280;66206;0.000;0.000;2023-01-19T15:01:11;96978.99;;;21.74;21.50
77212;BME280;66206;0.000;0.000;2023-01-19T15:03:41;96975.23;;;22.22;21.00
77212;BME280;66206;0.000;0.000;2023-01-19T15:06:11;96979.81;;;21.83;21.30
77212;BME280;66206;0.000;0.000;2023-01-19T15:08:37;96981.27;;;21.91;21.25
77212;BME280;66206;0.000;0.000;2023-01-19T15:11:08;96979.86;;;22.05;21.01
77212;BME280;66206;0.000;0.000;2023-01-19T15:13:28;96978.73;;;22.01;21.06
77212;BME280;66206;0.000;0.000;2023-01-19T15:15:58;96975.97;;;22.03;21.06
77212;BME280;66206;0.000;0.000;2023-01-19T15:18:28;96979.94;;;21.73;21.09
77212;BME280;66206;0.000;0.000;2023-01-19T15:20:53;96978.20;;;21.79;21.20
77212;BME280;66206;0.000;0.000;2023-01-19T15:23:23;96977.48;;;22.04;21.05
77212;BME280;66206;0.000;0.000;2023-01-19T15:25:57;96980.68;;;22.26;20.85
77212;BME280;66206;0.000;0.000;2023-01-19T15:28:22;96979.55;;;22.44;20.66
77212;BME280;66206;0.000;0.000;2023-01-19T15:30:47;96977.19;;;22.41;20.80
77212;BME280;66206;0.000;0.000;2023-01-19T15:33:18;96981.00;;;22.21;20.93
77212;BME280;66206;0.000;0.000;2023-01-19T15:35:44;96980.75;;;22.35;20.74
77212;BME280;66206;0.000;0.000;2023-01-19T15:38:14;96982.84;;;22.41;20.75
77212;BME280;66206;0.000;0.000;2023-01-19T15:40:44;96982.80;;;22.57;21.29
77212;BME280;66206;0.000;0.000;2023-01-19T15:43:10;96984.38;;;22.61;20.83
77212;BME280;66206;0.000;0.000;2023-01-19T15:45:40;96980.37;;;22.22;20.91
77212;BME280;66206;0.000;0.000;2023-01-19T15:48:06;96983.72;;;22.19;20.95
77212;BME280;66206;0.000;0.000;2023-01-19T15:50:32;96982.64;;;22.37;21.24
77212;BME280;66206;0.000;0.000;2023-01-19T15:52:59;96983.48;;;22.60;20.82
77212;BME280;66206;0.000;0.000;2023-01-19T15:55:29;96981.03;;;22.14;21.09
77212;BME280;66206;0.000;0.000;2023-01-19T15:57:59;96976.90;;;21.98;21.12
77212;BME280;66206;0.000;0.000;2023-01-19T16:00:29;96978.47;;;22.39;20.96
77212;BME280;66206;0.000;0.000;2023-01-19T16:02:55;96981.55;;;22.37;21.06
77212;BME280;66206;0.000;0.000;2023-01-19T16:05:25;96984.10;;;22.34;21.00
77212;BME280;66206;0.000;0.000;2023-01-19T16:07:55;96984.58;;;21.79;21.46
77212;BME280;66206;0.000;0.000;2023-01-19T16:10:25;96986.26;;;22.02;21.19
77212;BME280;66206;0.000;0.000;2023-01-19T16:12:55;96989.30;;;22.15;21.07
77212;BME280;66206;0.000;0.000;2023-01-19T16:15:25;96988.05;;;22.39;20.94
77212;BME280;66206;0.000;0.000;2023-01-19T16:17:55;96988.74;;;22.13;21.20
77212;BME280;66206;0.000;0.000;2023-01-19T16:20:25;96988.13;;;21.92;21.29
77212;BME280;66206;0.000;0.000;2023-01-19T16:22:55;96988.49;;;22.04;21.23
77212;BME280;66206;0.000;0.000;2023-01-19T16:25:26;96991.08;;;22.30;20.99
77212;BME280;66206;0.000;0.000;2023-01-19T16:27:56;96992.00;;;22.24;21.02
77212;BME280;66206;0.000;0.000;2023-01-19T16:30:26;96993.06;;;22.07;21.08
77212;BME280;66206;0.000;0.000;2023-01-19T16:32:56;96994.08;;;22.45;21.47
77212;BME280;66206;0.000;0.000;2023-01-19T16:35:26;96994.21;;;22.46;20.82
77212;BME280;66206;0.000;0.000;2023-01-19T16:37:56;96993.07;;;22.22;21.11
77212;BME280;66206;0.000;0.000;2023-01-19T16:40:26;96991.05;;;21.91;21.25
77212;BME280;66206;0.000;0.000;2023-01-19T16:42:56;96989.35;;;21.39;21.57
77212;BME280;66206;0.000;0.000;2023-01-19T16:45:26;96995.02;;;21.52;21.58
77212;BME280;66206;0.000;0.000;2023-01-19T16:47:56;96992.82;;;21.49;21.69
77212;BME280;66206;0.000;0.000;2023-01-19T16:50:26;96994.82;;;21.28;21.68
77212;BME280;66206;0.000;0.000;2023-01-19T16:52:56;96997.56;;;21.52;21.61
77212;BME280;66206;0.000;0.000;2023-01-19T16:55:27;96994.02;;;21.95;21.31
77212;BME280;66206;0.000;0.000;2023-01-19T16:57:57;96993.25;;;21.88;21.30
77212;BME280;66206;0.000;0.000;2023-01-19T17:00:27;96993.57;;;21.90;21.41
77212;BME280;66206;0.000;0.000;2023-01-19T17:02:57;96995.81;;;22.13;21.30
77212;BME280;66206;0.000;0.000;2023-01-19T17:05:27;96999.97;;;22.11;21.46
77212;BME280;66206;0.000;0.000;2023-01-19T17:07:57;97006.56;;;22.20;21.24
77212;BME280;66206;0.000;0.000;2023-01-19T17:10:27;97009.18;;;22.28;21.21
77212;BME280;66206;0.000;0.000;2023-01-19T17:12:57;97006.78;;;22.48;21.12
77212;BME280;66206;0.000;0.000;2023-01-19T17:15:28;97008.31;;;22.88;20.88
77212;BME280;66206;0.000;0.000;2023-01-19T17:17:53;97004.40;;;22.96;20.70
77212;BME280;66206;0.000;0.000;2023-01-19T17:20:23;97007.56;;;22.94;20.59
77212;BME280;66206;0.000;0.000;2023-01-19T17:22:53;97004.68;;;23.24;20.58
77212;BME280;66206;0.000;0.000;2023-01-19T17:25:24;97008.40;;;23.07;20.66
77212;BME280;66206;0.000;0.000;2023-01-19T17:27:54;97009.26;;;23.12;20.69
77212;BME280;66206;0.000;0.000;2023-01-19T17:30:24;97010.95;;;23.10;20.52
77212;BME280;66206;0.000;0.000;2023-01-19T17:32:54;97010.89;;;22.98;20.68
77212;BME280;66206;0.000;0.000;2023-01-19T17:35:24;97012.52;;;23.06;20.70
77212;BME280;66206;0.000;0.000;2023-01-19T17:37:54;97013.49;;;22.98;20.72
77212;BME280;66206;0.000;0.000;2023-01-19T17:40:24;97014.99;;;23.09;20.70
77212;BME280;66206;0.000;0.000;2023-01-19T17:42:54;97018.52;;;22.89;20.72
77212;BME280;66206;0.000;0.000;2023-01-19T17:45:24;97020.37;;;22.59;21.02
77212;BME280;66206;0.000;0.000;2023-01-19T17:47:54;97025.67;;;22.86;20.89
77212;BME280;66206;0.000;0.000;2023-01-19T17:50:24;97028.60;;;22.95;20.87
77212;BME280;66206;0.000;0.000;2023-01-19T17:52:54;97028.31;;;22.70;21.14
77212;BME280;66206;0.000;0.000;2023-01-19T17:55:24;97031.57;;;22.73;21.19
77212;BME280;66206;0.000;0.000;2023-01-19T17:57:55;97033.79;;;22.91;20.99
77212;BME280;66206;0.000;0.000;2023-01-19T18:00:25;97028.97;;;23.08;20.91
77212;BME280;66206;0.000;0.000;2023-01-19T18:02:55;97031.84;;;23.11;20.73
77212;BME280;66206;0.000;0.000;2023-01-19T18:05:25;97030.90;;;23.12;20.76
77212;BME280;66206;0.000;0.000;2023-01-19T18:07:55;97032.37;;;23.32;20.74
77212;BME280;66206;0.000;0.000;2023-01-19T18:10:25;97034.59;;;23.05;20.70
77212;BME280;66206;0.000;0.000;2023-01-19T18:12:55;97035.06;;;23.19;20.66
77212;BME280;66206;0.000;0.000;2023-01-19T18:15:25;97034.36;;;23.25;20.69
77212;BME280;66206;0.000;0.000;2023-01-19T18:17:55;97039.59;;;23.11;20.75
77212;BME280;66206;0.000;0.000;2023-01-19T18:20:25;97041.66;;;22.88;20.85
77212;BME280;66206;0.000;0.000;2023-01-19T18:22:56;97039.46;;;23.05;20.94
77212;BME280;66206;0.000;0.000;2023-01-19T18:25:26;97038.78;;;22.60;21.15
77212;BME280;66206;0.000;0.000;2023-01-19T18:27:56;97040.02;;;23.00;21.07
77212;BME280;66206;0.000;0.000;2023-01-19T18:30:21;97038.54;;;22.87;21.11
77212;BME280;66206;0.000;0.000;2023-01-19T18:32:51;97038.64;;;22.78;21.16
77212;BME280;66206;0.000;0.000;2023-01-19T18:35:21;97037.69;;;22.91;21.04
77212;BME280;66206;0.000;0.000;2023-01-19T18:37:51;97038.05;;;22.44;21.07
77212;BME280;66206;0.000;0.000;2023-01-19T18:40:21;97040.21;;;22.60;21.41
77212;BME280;66206;0.000;0.000;2023-01-19T18:42:51;97042.48;;;22.77;21.45
77212;BME280;66206;0.000;0.000;2023-01-19T18:45:22;97042.99;;;22.75;21.46
77212;BME280;66206;0.000;0.000;2023-01-19T18:47:52;97042.78;;;22.71;21.87
77212;BME280;66206;0.000;0.000;2023-01-19T18:50:22;97044.54;;;23.04;21.92
77212;BME280;66206;0.000;0.000;2023-01-19T18:52:52;97041.14;;;22.82;22.15
77212;BME280;66206;0.000;0.000;2023-01-19T18:55:22;97041.09;;;22.98;22.04
77212;BME280;66206;0.000;0.000;2023-01-19T18:57:52;97039.36;;;22.54;22.61
77212;BME280;66206;0.000;0.000;2023-01-19T19:00:22;97041.87;;;23.04;22.38
77212;BME280;66206;0.000;0.000;2023-01-19T19:02:52;97042.19;;;22.76;21.01
77212;BME280;66206;0.000;0.000;2023-01-19T19:05:22;97045.69;;;22.60;20.79
77212;BME280;66206;0.000;0.000;2023-01-19T19:07:47;97044.23;;;22.81;20.90
77212;BME280;66206;0.000;0.000;2023-01-19T19:10:17;97043.97;;;22.75;21.34
77212;BME280;66206;0.000;0.000;2023-01-19T19:12:47;97046.91;;;22.23;21.81
77212;BME280;66206;0.000;0.000;2023-01-19T19:15:17;97047.50;;;21.98;22.14
77212;BME280;66206;0.000;0.000;2023-01-19T19:17:48;97044.14;;;22.08;22.28
77212;BME280;66206;0.000;0.000;2023-01-19T19:20:18;97046.06;;;21.83;22.34
77212;BME280;66206;0.000;0.000;2023-01-19T19:22:48;97045.78;;;22.28;22.10
77212;BME280;66206;0.000;0.000;2023-01-19T19:25:13;97046.77;;;22.19;21.99
77212;BME280;66206;0.000;0.000;2023-01-19T19:27:43;97049.34;;;22.35;21.94
77212;BME280;66206;0.000;0.000;2023-01-19T19:30:13;97046.48;;;22.10;22.01
77212;BME280;66206;0.000;0.000;2023-01-19T19:32:44;97047.51;;;22.28;22.06
77212;BME280;66206;0.000;0.000;2023-01-19T19:35:14;97047.17;;;22.11;22.17
77212;BME280;66206;0.000;0.000;2023-01-19T19:37:44;97049.69;;;22.22;22.08
77212;BME280;66206;0.000;0.000;2023-01-19T19:40:14;97048.74;;;22.09;22.18
77212;BME280;66206;0.000;0.000;2023-01-19T19:42:44;97049.03;;;21.91;22.30
77212;BME280;66206;0.000;0.000;2023-01-19T19:45:14;97050.27;;;22.22;21.99
77212;BME280;66206;0.000;0.000;2023-01-19T19:47:44;97051.45;;;22.05;22.23
77212;BME280;66206;0.000;0.000;2023-01-19T19:50:15;97055.38;;;21.97;22.27
77212;BME280;66206;0.000;0.000;2023-01-19T19:52:40;97058.77;;;22.11;22.15
77212;BME280;66206;0.000;0.000;2023-01-19T19:55:10;97061.71;;;22.02;22.26
77212;BME280;66206;0.000;0.000;2023-01-19T19:57:40;97060.34;;;21.98;22.22
77212;BME280;66206;0.000;0.000;2023-01-19T20:00:10;97061.25;;;22.12;22.27
77212;BME280;66206;0.000;0.000;2023-01-19T20:02:35;97059.34;;;22.29;22.13
77212;BME280;66206;0.000;0.000;2023-01-19T20:05:06;97061.34;;;21.95;22.35
77212;BME280;66206;0.000;0.000;2023-01-19T20:07:36;97060.99;;;21.91;22.25
77212;BME280;66206;0.000;0.000;2023-01-19T20:10:06;97059.80;;;22.35;22.01
77212;BME280;66206;0.000;0.000;2023-01-19T20:12:31;97063.41;;;22.12;22.12
77212;BME280;66206;0.000;0.000;2023-01-19T20:15:01;97063.76;;;22.28;22.05
77212;BME280;66206;0.000;0.000;2023-01-19T20:17:31;97063.46;;;22.33;22.04
77212;BME280;66206;0.000;0.000;2023-01-19T20:20:01;97068.15;;;22.24;22.19
77212;BME280;66206;0.000;0.000;2023-01-19T20:22:31;97064.92;;;22.21;22.26
77212;BME280;66206;0.000;0.000;2023-01-19T20:25:01;97069.45;;;22.09;22.27
77212;BME280;66206;0.000;0.000;2023-01-19T20:27:32;97069.28;;;22.37;22.06
77212;BME280;66206;0.000;0.000;2023-01-19T20:29:57;97068.49;;;22.39;22.07
77212;BME280;66206;0.000;0.000;2023-01-19T20:32:27;97071.33;;;22.05;22.32
77212;BME280;66206;0.000;0.000;2023-01-19T20:34:57;97077.36;;;22.16;22.27
77212;BME280;66206;0.000;0.000;2023-01-19T20:37:22;97074.99;;;22.51;21.98
77212;BME280;66206;0.000;0.000;2023-01-19T20:39:51;97079.15;;;24.67;22.25
77212;BME280;66206;0.000;0.000;2023-01-19T20:42:17;97077.87;;;23.99;23.58
77212;BME280;66206;0.000;0.000;2023-01-19T20:44:44;97079.35;;;23.50;24.48
77212;BME280;66206;0.000;0.000;2023-01-19T20:47:11;97082.55;;;23.48;24.70
77212;BME280;66206;0.000;0.000;2023-01-19T20:49:38;97079.39;;;23.13;25.16
77212;BME280;66206;0.000;0.000;2023-01-19T20:52:04;97081.72;;;23.51;24.86
77212;BME280;66206;0.000;0.000;2023-01-19T20:54:31;97082.29;;;23.23;25.20
77212;BME280;66206;0.000;0.000;2023-01-19T20:56:58;97084.63;;;23.20;25.27
77212;BME280;66206;0.000;0.000;2023-01-19T20:59:25;97086.59;;;23.40;25.04
77212;BME280;66206;0.000;0.000;2023-01-19T21:01:51;97087.24;;;23.22;25.14
77212;BME280;66206;0.000;0.000;2023-01-19T21:04:18;97088.09;;;23.29;24.99
77212;BME280;66206;0.000;0.000;2023-01-19T21:06:45;97087.71;;;23.43;25.07
77212;BME280;66206;0.000;0.000;2023-01-19T21:09:12;97090.06;;;23.57;25.02
77212;BME280;66206;0.000;0.000;2023-01-19T21:11:38;97094.70;;;23.48;25.02
77212;BME280;66206;0.000;0.000;2023-01-19T21:14:05;97098.27;;;23.81;24.76
77212;BME280;66206;0.000;0.000;2023-01-19T21:16:33;97099.01;;;23.73;24.79
77212;BME280;66206;0.000;0.000;2023-01-19T21:19:00;97101.24;;;23.66;24.73
77212;BME280;66206;0.000;0.000;2023-01-19T21:21:26;97102.83;;;23.83;24.67
77212;BME280;66206;0.000;0.000;2023-01-19T21:23:54;97105.62;;;23.73;24.77
77212;BME280;66206;0.000;0.000;2023-01-19T21:26:20;97106.89;;;23.59;24.83
77212;BME280;66206;0.000;0.000;2023-01-19T21:28:47;97108.63;;;23.49;24.65
77212;BME280;66206;0.000;0.000;2023-01-19T21:31:14;97107.87;;;23.50;24.76
77212;BME280;66206;0.000;0.000;2023-01-19T21:33:41;97106.64;;;23.48;24.71
77212;BME280;66206;0.000;0.000;2023-01-19T21:36:08;97107.26;;;23.51;24.74
77212;BME280;66206;0.000;0.000;2023-01-19T21:38:36;97113.56;;;23.15;24.89
77212;BME280;66206;0.000;0.000;2023-01-19T21:41:04;97111.65;;;23.36;24.70
77212;BME280;66206;0.000;0.000;2023-01-19T21:43:31;97112.76;;;23.40;24.74
77212;BME280;66206;0.000;0.000;2023-01-19T21:46:06;97111.40;;;23.09;24.99
77212;BME280;66206;0.000;0.000;2023-01-19T21:48:23;97114.67;;;22.98;24.94
77212;BME280;66206;0.000;0.000;2023-01-19T21:50:55;97114.56;;;23.24;24.78
77212;BME280;66206;0.000;0.000;2023-01-19T21:53:16;97114.00;;;23.40;24.78
77212;BME280;66206;0.000;0.000;2023-01-19T21:55:43;97115.26;;;23.19;24.76
77212;BME280;66206;0.000;0.000;2023-01-19T21:58:09;97117.18;;;23.21;24.80
77212;BME280;66206;0.000;0.000;2023-01-19T22:00:36;97115.95;;;23.47;24.66
77212;BME280;66206;0.000;0.000;2023-01-19T22:03:03;97115.41;;;23.24;24.84
77212;BME280;66206;0.000;0.000;2023-01-19T22:05:32;97120.97;;;23.23;24.83
77212;BME280;66206;0.000;0.000;2023-01-19T22:07:59;97121.53;;;23.38;24.61
77212;BME280;66206;0.000;0.000;2023-01-19T22:10:25;97123.47;;;23.32;24.57
77212;BME280;66206;0.000;0.000;2023-01-19T22:12:52;97125.83;;;23.19;24.81
77212;BME280;66206;0.000;0.000;2023-01-19T22:15:19;97127.66;;;23.13;24.93
77212;BME280;66206;0.000;0.000;2023-01-19T22:17:45;97128.38;;;23.26;24.69
77212;BME280;66206;0.000;0.000;2023-01-19T22:20:12;97127.54;;;23.32;24.70
77212;BME280;66206;0.000;0.000;2023-01-19T22:22:39;97129.59;;;23.39;24.61
77212;BME280;66206;0.000;0.000;2023-01-19T22:25:05;97128.30;;;23.41;24.69
77212;BME280;66206;0.000;0.000;2023-01-19T22:27:32;97131.03;;;23.44;24.60
77212;BME280;66206;0.000;0.000;2023-01-19T22:29:59;97129.85;;;23.36;24.61
77212;BME280;66206;0.000;0.000;2023-01-19T22:32:25;97127.43;;;23.43;24.59
77212;BME280;66206;0.000;0.000;2023-01-19T22:34:52;97130.10;;;23.72;24.41
77212;BME280;66206;0.000;0.000;2023-01-19T22:37:19;97129.12;;;23.42;24.59
77212;BME280;66206;0.000;0.000;2023-01-19T22:39:45;97128.86;;;23.32;24.76
77212;BME280;66206;0.000;0.000;2023-01-19T22:42:12;97130.23;;;23.67;24.52
77212;BME280;66206;0.000;0.000;2023-01-19T22:44:39;97128.10;;;23.43;24.56
77212;BME280;66206;0.000;0.000;2023-01-19T22:47:05;97128.63;;;23.36;24.64
77212;BME280;66206;0.000;0.000;2023-01-19T22:49:32;97128.48;;;23.36;24.73
77212;BME280;66206;0.000;0.000;2023-01-19T22:51:59;97127.14;;;23.33;24.68
77212;BME280;66206;0.000;0.000;2023-01-19T22:54:25;97127.18;;;23.35;24.78
77212;BME280;66206;0.000;0.000;2023-01-19T22:56:52;97124.71;;;23.39;24.75
77212;BME280;66206;0.000;0.000;2023-01-19T22:59:19;97128.86;;;23.03;24.96
77212;BME280;66206;0.000;0.000;2023-01-19T23:01:47;97128.59;;;23.05;24.88
77212;BME280;66206;0.000;0.000;2023-01-19T23:04:14;97129.28;;;23.25;24.62
77212;BME280;66206;0.000;0.000;2023-01-19T23:06:41;97127.23;;;23.09;24.71
77212;BME280;66206;0.000;0.000;2023-01-19T23:09:09;97126.05;;;22.99;24.92
77212;BME280;66206;0.000;0.000;2023-01-19T23:11:37;97123.73;;;22.93;24.79
77212;BME280;66206;0.000;0.000;2023-01-19T23:14:04;97128.24;;;22.79;25.12
77212;BME280;66206;0.000;0.000;2023-01-19T23:16:31;97126.45;;;23.24;24.87
77212;BME280;66206;0.000;0.000;2023-01-19T23:18:58;97125.27;;;23.27;24.44
77212;BME280;66206;0.000;0.000;2023-01-19T23:21:25;97125.17;;;22.53;25.00
77212;BME280;66206;0.000;0.000;2023-01-19T23:23:52;97124.17;;;22.42;25.30
77212;BME280;66206;0.000;0.000;2023-01-19T23:26:19;97122.66;;;22.60;25.09
77212;BME280;66206;0.000;0.000;2023-01-19T23:28:46;97126.98;;;22.77;24.85
77212;BME280;66206;0.000;0.000;2023-01-19T23:31:14;97130.03;;;22.95;24.82
77212;BME280;66206;0.000;0.000;2023-01-19T23:33:41;97129.04;;;22.67;24.90
77212;BME280;66206;0.000;0.000;2023-01-19T23:36:07;97128.69;;;22.73;24.93
77212;BME280;66206;0.000;0.000;2023-01-19T23:38:34;97127.04;;;22.66;25.00
77212;BME280;66206;0.000;0.000;2023-01-19T23:41:00;97129.31;;;22.72;24.96
77212;BME280;66206;0.000;0.000;2023-01-19T23:43:27;97126.71;;;22.30;25.28
77212;BME280;66206;0.000;0.000;2023-01-19T23:45:54;97133.04;;;22.23;25.45
77212;BME280;66206;0.000;0.000;2023-01-19T23:48:21;97134.49;;;22.24;25.32
77212;BME280;66206;0.000;0.000;2023-01-19T23:50:47;97139.77;;;22.22;25.49
77212;BME280;66206;0.000;0.000;2023-01-19T23:53:14;97138.21;;;22.10;25.60
77212;BME280;66206;0.000;0.000;2023-01-19T23:55:40;97142.97;;;22.21;25.56
77212;BME280;66206;0.000;0.000;2023-01-19T23:58:07;97144.58;;;21.73;25.99
